sensor_id;sensor_type;location;lat;lon;timestamp;P1;durP1;ratioP1;P2;durP2;ratioP2
12535;SDS011;6334;48.696;2.114;2023-08-24T00:00:39;5.90;;;4.33;;
12535;SDS011;6334;48.696;2.114;2023-08-24T00:03:08;5.60;;;4.10;;
12535;SDS011;6334;48.696;2.114;2023-08-24T00:05:38;4.30;;;3.90;;
12535;SDS011;6334;48.696;2.114;2023-08-24T00:08:08;6.80;;;4.17;;
12535;SDS011;6334;48.696;2.114;2023-08-24T00:10:39;5.33;;;4.03;;
12535;SDS011;6334;48.696;2.114;2023-08-24T00:13:09;5.33;;;4.23;;
12535;SDS011;6334;48.696;2.114;2023-08-24T00:15:39;10.07;;;4.67;;
12535;SDS011;6334;48.696;2.114;2023-08-24T00:18:10;6.53;;;4.23;;
12535;SDS011;6334;48.696;2.114;2023-08-24T00:20:41;6.40;;;4.03;;
12535;SDS011;6334;48.696;2.114;2023-08-24T00:23:11;6.07;;;4.20;;
12535;SDS011;6334;48.696;2.114;2023-08-24T00:25:42;7.53;;;4.40;;
12535;SDS011;6334;48.696;2.114;2023-08-24T00:28:12;6.50;;;4.10;;
12535;SDS011;6334;48.696;2.114;2023-08-24T00:30:43;4.37;;;3.97;;
12535;SDS011;6334;48.696;2.114;2023-08-24T00:33:13;4.30;;;3.93;;
12535;SDS011;6334;48.696;2.114;2023-08-24T00:35:43;7.67;;;4.60;;
12535;SDS011;6334;48.696;2.114;2023-08-24T00:38:14;7.80;;;4.20;;
12535;SDS011;6334;48.696;2.114;2023-08-24T00:40:44;5.50;;;4.17;;
12535;SDS011;6334;48.696;2.114;2023-08-24T00:43:15;4.73;;;4.20;;
12535;SDS011;6334;48.696;2.114;2023-08-24T00:45:45;5.13;;;4.37;;
12535;SDS011;6334;48.696;2.114;2023-08-24T00:48:16;5.63;;;4.37;;
12535;SDS011;6334;48.696;2.114;2023-08-24T00:50:46;4.47;;;4.03;;
12535;SDS011;6334;48.696;2.114;2023-08-24T00:53:17;7.23;;;4.10;;
12535;SDS011;6334;48.696;2.114;2023-08-24T00:55:47;6.23;;;4.27;;
12535;SDS011;6334;48.696;2.114;2023-08-24T00:58:18;4.40;;;4.00;;
12535;SDS011;6334;48.696;2.114;2023-08-24T01:00:51;8.10;;;4.90;;
12535;SDS011;6334;48.696;2.114;2023-08-24T01:03:23;6.03;;;4.70;;
12535;SDS011;6334;48.696;2.114;2023-08-24T01:05:54;4.60;;;4.00;;
12535;SDS011;6334;48.696;2.114;2023-08-24T01:08:24;4.90;;;4.03;;
12535;SDS011;6334;48.696;2.114;2023-08-24T01:10:59;5.67;;;4.37;;
12535;SDS011;6334;48.696;2.114;2023-08-24T01:16:25;7.53;;;4.20;;
12535;SDS011;6334;48.696;2.114;2023-08-24T01:18:45;6.80;;;4.00;;
12535;SDS011;6334;48.696;2.114;2023-08-24T01:21:16;6.23;;;4.37;;
12535;SDS011;6334;48.696;2.114;2023-08-24T01:23:53;4.97;;;4.00;;
12535;SDS011;6334;48.696;2.114;2023-08-24T01:26:20;4.93;;;4.30;;
12535;SDS011;6334;48.696;2.114;2023-08-24T01:28:50;5.67;;;4.00;;
12535;SDS011;6334;48.696;2.114;2023-08-24T01:31:20;7.13;;;4.70;;
12535;SDS011;6334;48.696;2.114;2023-08-24T01:33:51;6.07;;;4.00;;
12535;SDS011;6334;48.696;2.114;2023-08-24T01:36:21;5.57;;;4.23;;
12535;SDS011;6334;48.696;2.114;2023-08-24T01:38:58;4.67;;;4.17;;
12535;SDS011;6334;48.696;2.114;2023-08-24T01:41:26;6.83;;;4.53;;
12535;SDS011;6334;48.696;2.114;2023-08-24T01:43:55;7.53;;;4.10;;
12535;SDS011;6334;48.696;2.114;2023-08-24T01:46:25;6.47;;;4.20;;
12535;SDS011;6334;48.696;2.114;2023-08-24T01:48:56;6.63;;;4.20;;
12535;SDS011;6334;48.696;2.114;2023-08-24T01:51:26;5.63;;;4.03;;
12535;SDS011;6334;48.696;2.114;2023-08-24T01:53:57;6.17;;;4.37;;
12535;SDS011;6334;48.696;2.114;2023-08-24T01:56:28;7.13;;;4.30;;
12535;SDS011;6334;48.696;2.114;2023-08-24T01:59:00;7.23;;;4.10;;
12535;SDS011;6334;48.696;2.114;2023-08-24T02:01:31;5.20;;;4.00;;
12535;SDS011;6334;48.696;2.114;2023-08-24T02:04:01;6.40;;;4.20;;
12535;SDS011;6334;48.696;2.114;2023-08-24T02:06:31;8.07;;;4.60;;
12535;SDS011;6334;48.696;2.114;2023-08-24T02:09:02;5.10;;;4.13;;
12535;SDS011;6334;48.696;2.114;2023-08-24T02:11:32;5.00;;;3.97;;
12535;SDS011;6334;48.696;2.114;2023-08-24T02:14:03;4.67;;;3.93;;
12535;SDS011;6334;48.696;2.114;2023-08-24T02:16:33;5.17;;;4.20;;
12535;SDS011;6334;48.696;2.114;2023-08-24T02:19:04;4.73;;;3.67;;
12535;SDS011;6334;48.696;2.114;2023-08-24T02:21:37;5.70;;;4.53;;
12535;SDS011;6334;48.696;2.114;2023-08-24T02:24:07;5.07;;;4.20;;
12535;SDS011;6334;48.696;2.114;2023-08-24T02:26:38;6.10;;;3.93;;
12535;SDS011;6334;48.696;2.114;2023-08-24T02:29:08;5.10;;;4.10;;
12535;SDS011;6334;48.696;2.114;2023-08-24T02:31:39;3.90;;;3.60;;
12535;SDS011;6334;48.696;2.114;2023-08-24T02:34:09;5.63;;;4.30;;
12535;SDS011;6334;48.696;2.114;2023-08-24T02:36:39;4.27;;;3.90;;
12535;SDS011;6334;48.696;2.114;2023-08-24T02:39:10;6.57;;;4.07;;
12535;SDS011;6334;48.696;2.114;2023-08-24T02:41:40;7.50;;;4.07;;
12535;SDS011;6334;48.696;2.114;2023-08-24T02:44:11;4.40;;;4.00;;
12535;SDS011;6334;48.696;2.114;2023-08-24T02:46:44;4.90;;;4.17;;
12535;SDS011;6334;48.696;2.114;2023-08-24T02:49:12;7.00;;;4.73;;
12535;SDS011;6334;48.696;2.114;2023-08-24T02:51:42;4.47;;;4.07;;
12535;SDS011;6334;48.696;2.114;2023-08-24T02:54:13;5.60;;;4.30;;
12535;SDS011;6334;48.696;2.114;2023-08-24T02:56:43;9.57;;;4.73;;
12535;SDS011;6334;48.696;2.114;2023-08-24T02:59:16;6.43;;;4.60;;
12535;SDS011;6334;48.696;2.114;2023-08-24T03:01:47;8.10;;;4.50;;
12535;SDS011;6334;48.696;2.114;2023-08-24T03:04:17;5.23;;;4.20;;
12535;SDS011;6334;48.696;2.114;2023-08-24T03:06:47;5.73;;;4.77;;
12535;SDS011;6334;48.696;2.114;2023-08-24T03:09:18;5.63;;;4.60;;
12535;SDS011;6334;48.696;2.114;2023-08-24T03:11:48;5.93;;;4.80;;
12535;SDS011;6334;48.696;2.114;2023-08-24T03:14:19;6.13;;;4.07;;
12535;SDS011;6334;48.696;2.114;2023-08-24T03:16:49;7.27;;;4.47;;
12535;SDS011;6334;48.696;2.114;2023-08-24T03:19:20;4.67;;;4.20;;
12535;SDS011;6334;48.696;2.114;2023-08-24T03:21:50;5.23;;;4.63;;
12535;SDS011;6334;48.696;2.114;2023-08-24T03:24:21;5.10;;;4.50;;
12535;SDS011;6334;48.696;2.114;2023-08-24T03:26:51;7.03;;;4.73;;
12535;SDS011;6334;48.696;2.114;2023-08-24T03:29:22;4.87;;;4.03;;
12535;SDS011;6334;48.696;2.114;2023-08-24T03:31:52;6.37;;;4.30;;
12535;SDS011;6334;48.696;2.114;2023-08-24T03:34:22;16.40;;;5.13;;
12535;SDS011;6334;48.696;2.114;2023-08-24T03:36:53;6.53;;;4.13;;
12535;SDS011;6334;48.696;2.114;2023-08-24T03:39:23;4.87;;;4.07;;
12535;SDS011;6334;48.696;2.114;2023-08-24T03:41:54;5.50;;;4.27;;
12535;SDS011;6334;48.696;2.114;2023-08-24T03:44:24;5.37;;;4.23;;
12535;SDS011;6334;48.696;2.114;2023-08-24T03:46:55;5.20;;;4.30;;
12535;SDS011;6334;48.696;2.114;2023-08-24T03:49:25;4.97;;;4.40;;
12535;SDS011;6334;48.696;2.114;2023-08-24T03:51:56;6.70;;;4.43;;
12535;SDS011;6334;48.696;2.114;2023-08-24T03:54:26;6.07;;;4.50;;
12535;SDS011;6334;48.696;2.114;2023-08-24T03:56:57;5.30;;;4.43;;
12535;SDS011;6334;48.696;2.114;2023-08-24T03:59:27;5.60;;;4.40;;
12535;SDS011;6334;48.696;2.114;2023-08-24T04:01:57;6.60;;;4.70;;
12535;SDS011;6334;48.696;2.114;2023-08-24T04:04:28;9.67;;;4.80;;
12535;SDS011;6334;48.696;2.114;2023-08-24T04:06:58;7.50;;;4.50;;
12535;SDS011;6334;48.696;2.114;2023-08-24T04:09:29;6.87;;;4.90;;
12535;SDS011;6334;48.696;2.114;2023-08-24T04:11:59;7.70;;;4.63;;
12535;SDS011;6334;48.696;2.114;2023-08-24T04:14:30;5.63;;;4.40;;
12535;SDS011;6334;48.696;2.114;2023-08-24T04:17:00;7.53;;;4.90;;
12535;SDS011;6334;48.696;2.114;2023-08-24T04:19:31;5.50;;;4.33;;
12535;SDS011;6334;48.696;2.114;2023-08-24T04:22:01;4.70;;;4.20;;
12535;SDS011;6334;48.696;2.114;2023-08-24T04:24:32;6.53;;;4.33;;
12535;SDS011;6334;48.696;2.114;2023-08-24T04:27:02;7.07;;;4.47;;
12535;SDS011;6334;48.696;2.114;2023-08-24T04:29:33;5.57;;;4.10;;
12535;SDS011;6334;48.696;2.114;2023-08-24T04:32:03;5.00;;;4.30;;
12535;SDS011;6334;48.696;2.114;2023-08-24T04:34:34;7.03;;;3.87;;
12535;SDS011;6334;48.696;2.114;2023-08-24T04:37:05;6.17;;;4.33;;
12535;SDS011;6334;48.696;2.114;2023-08-24T04:39:34;7.27;;;4.57;;
12535;SDS011;6334;48.696;2.114;2023-08-24T04:42:05;5.37;;;4.13;;
12535;SDS011;6334;48.696;2.114;2023-08-24T04:44:35;8.20;;;4.50;;
12535;SDS011;6334;48.696;2.114;2023-08-24T04:47:06;5.17;;;4.20;;
12535;SDS011;6334;48.696;2.114;2023-08-24T04:49:36;6.07;;;4.50;;
12535;SDS011;6334;48.696;2.114;2023-08-24T04:52:07;5.80;;;4.37;;
12535;SDS011;6334;48.696;2.114;2023-08-24T04:54:37;7.00;;;4.47;;
12535;SDS011;6334;48.696;2.114;2023-08-24T04:57:08;5.87;;;4.33;;
12535;SDS011;6334;48.696;2.114;2023-08-24T04:59:38;6.70;;;4.73;;
12535;SDS011;6334;48.696;2.114;2023-08-24T05:02:09;8.43;;;4.57;;
12535;SDS011;6334;48.696;2.114;2023-08-24T05:04:39;6.43;;;4.40;;
12535;SDS011;6334;48.696;2.114;2023-08-24T05:07:09;6.03;;;4.50;;
12535;SDS011;6334;48.696;2.114;2023-08-24T05:09:40;5.77;;;4.27;;
12535;SDS011;6334;48.696;2.114;2023-08-24T05:12:10;6.37;;;4.40;;
12535;SDS011;6334;48.696;2.114;2023-08-24T05:14:41;8.23;;;4.37;;
12535;SDS011;6334;48.696;2.114;2023-08-24T05:17:11;5.63;;;4.30;;
12535;SDS011;6334;48.696;2.114;2023-08-24T05:19:42;4.90;;;4.23;;
12535;SDS011;6334;48.696;2.114;2023-08-24T05:22:12;6.33;;;4.50;;
12535;SDS011;6334;48.696;2.114;2023-08-24T05:24:43;9.33;;;4.40;;
12535;SDS011;6334;48.696;2.114;2023-08-24T05:27:15;5.43;;;4.33;;
12535;SDS011;6334;48.696;2.114;2023-08-24T05:29:45;4.57;;;4.17;;
12535;SDS011;6334;48.696;2.114;2023-08-24T05:32:16;8.97;;;4.67;;
12535;SDS011;6334;48.696;2.114;2023-08-24T05:34:46;7.00;;;4.60;;
12535;SDS011;6334;48.696;2.114;2023-08-24T05:37:17;5.00;;;4.50;;
12535;SDS011;6334;48.696;2.114;2023-08-24T05:39:47;7.73;;;4.67;;
12535;SDS011;6334;48.696;2.114;2023-08-24T05:42:17;8.27;;;4.70;;
12535;SDS011;6334;48.696;2.114;2023-08-24T05:44:48;7.20;;;5.00;;
12535;SDS011;6334;48.696;2.114;2023-08-24T05:47:18;5.77;;;4.80;;
12535;SDS011;6334;48.696;2.114;2023-08-24T05:49:49;6.30;;;4.53;;
12535;SDS011;6334;48.696;2.114;2023-08-24T05:52:19;5.57;;;4.07;;
12535;SDS011;6334;48.696;2.114;2023-08-24T05:54:50;8.30;;;4.27;;
12535;SDS011;6334;48.696;2.114;2023-08-24T05:57:20;4.83;;;4.27;;
12535;SDS011;6334;48.696;2.114;2023-08-24T05:59:51;6.73;;;4.50;;
12535;SDS011;6334;48.696;2.114;2023-08-24T06:02:22;6.60;;;4.40;;
12535;SDS011;6334;48.696;2.114;2023-08-24T06:04:53;8.23;;;4.77;;
12535;SDS011;6334;48.696;2.114;2023-08-24T06:07:23;6.90;;;4.60;;
12535;SDS011;6334;48.696;2.114;2023-08-24T06:09:53;4.37;;;3.97;;
12535;SDS011;6334;48.696;2.114;2023-08-24T06:12:24;7.63;;;4.60;;
12535;SDS011;6334;48.696;2.114;2023-08-24T06:14:54;5.50;;;4.20;;
12535;SDS011;6334;48.696;2.114;2023-08-24T06:17:25;8.23;;;4.33;;
12535;SDS011;6334;48.696;2.114;2023-08-24T06:19:55;5.97;;;5.00;;
12535;SDS011;6334;48.696;2.114;2023-08-24T06:22:26;6.30;;;4.77;;
12535;SDS011;6334;48.696;2.114;2023-08-24T06:24:56;6.53;;;4.77;;
12535;SDS011;6334;48.696;2.114;2023-08-24T06:27:27;5.70;;;5.07;;
12535;SDS011;6334;48.696;2.114;2023-08-24T06:29:57;6.63;;;4.80;;
12535;SDS011;6334;48.696;2.114;2023-08-24T06:32:28;6.13;;;4.60;;
12535;SDS011;6334;48.696;2.114;2023-08-24T06:34:58;7.37;;;5.07;;
12535;SDS011;6334;48.696;2.114;2023-08-24T06:37:30;8.03;;;4.90;;
12535;SDS011;6334;48.696;2.114;2023-08-24T06:40:00;8.23;;;4.80;;
12535;SDS011;6334;48.696;2.114;2023-08-24T06:42:31;8.80;;;5.30;;
12535;SDS011;6334;48.696;2.114;2023-08-24T06:45:01;5.93;;;4.47;;
12535;SDS011;6334;48.696;2.114;2023-08-24T06:47:32;8.63;;;5.10;;
12535;SDS011;6334;48.696;2.114;2023-08-24T06:50:02;6.83;;;4.37;;
12535;SDS011;6334;48.696;2.114;2023-08-24T06:52:32;5.20;;;4.70;;
12535;SDS011;6334;48.696;2.114;2023-08-24T06:55:03;8.40;;;4.97;;
12535;SDS011;6334;48.696;2.114;2023-08-24T06:57:34;8.63;;;4.73;;
12535;SDS011;6334;48.696;2.114;2023-08-24T07:00:04;7.03;;;4.83;;
12535;SDS011;6334;48.696;2.114;2023-08-24T07:02:35;7.30;;;4.87;;
12535;SDS011;6334;48.696;2.114;2023-08-24T07:05:06;9.53;;;5.33;;
12535;SDS011;6334;48.696;2.114;2023-08-24T07:07:36;7.50;;;4.97;;
12535;SDS011;6334;48.696;2.114;2023-08-24T07:10:07;6.77;;;5.10;;
12535;SDS011;6334;48.696;2.114;2023-08-24T07:12:37;6.30;;;4.80;;
12535;SDS011;6334;48.696;2.114;2023-08-24T07:15:08;6.33;;;4.67;;
12535;SDS011;6334;48.696;2.114;2023-08-24T07:17:38;6.00;;;4.40;;
12535;SDS011;6334;48.696;2.114;2023-08-24T07:20:09;5.17;;;4.40;;
12535;SDS011;6334;48.696;2.114;2023-08-24T07:22:40;4.97;;;4.47;;
12535;SDS011;6334;48.696;2.114;2023-08-24T07:25:11;6.43;;;4.77;;
12535;SDS011;6334;48.696;2.114;2023-08-24T07:27:41;5.70;;;4.93;;
12535;SDS011;6334;48.696;2.114;2023-08-24T07:30:12;5.00;;;4.50;;
12535;SDS011;6334;48.696;2.114;2023-08-24T07:32:42;6.97;;;4.40;;
12535;SDS011;6334;48.696;2.114;2023-08-24T07:35:13;6.77;;;4.50;;
12535;SDS011;6334;48.696;2.114;2023-08-24T07:37:43;5.77;;;4.50;;
12535;SDS011;6334;48.696;2.114;2023-08-24T07:40:14;4.83;;;4.43;;
12535;SDS011;6334;48.696;2.114;2023-08-24T07:42:47;6.77;;;4.50;;
12535;SDS011;6334;48.696;2.114;2023-08-24T07:45:17;5.43;;;4.70;;
12535;SDS011;6334;48.696;2.114;2023-08-24T07:47:48;6.63;;;4.50;;
12535;SDS011;6334;48.696;2.114;2023-08-24T07:50:18;5.10;;;4.60;;
12535;SDS011;6334;48.696;2.114;2023-08-24T07:52:48;5.43;;;4.80;;
12535;SDS011;6334;48.696;2.114;2023-08-24T07:55:19;7.10;;;5.03;;
12535;SDS011;6334;48.696;2.114;2023-08-24T07:57:49;5.60;;;4.27;;
12535;SDS011;6334;48.696;2.114;2023-08-24T08:00:20;5.63;;;4.40;;
12535;SDS011;6334;48.696;2.114;2023-08-24T08:02:50;7.73;;;4.20;;
12535;SDS011;6334;48.696;2.114;2023-08-24T08:05:21;4.43;;;4.03;;
12535;SDS011;6334;48.696;2.114;2023-08-24T08:07:52;12.47;;;4.70;;
12535;SDS011;6334;48.696;2.114;2023-08-24T08:10:22;5.70;;;4.23;;
12535;SDS011;6334;48.696;2.114;2023-08-24T08:12:53;4.83;;;4.30;;
12535;SDS011;6334;48.696;2.114;2023-08-24T08:15:23;7.47;;;4.60;;
12535;SDS011;6334;48.696;2.114;2023-08-24T08:17:54;4.90;;;4.17;;
12535;SDS011;6334;48.696;2.114;2023-08-24T08:20:24;7.27;;;4.30;;
12535;SDS011;6334;48.696;2.114;2023-08-24T08:22:55;6.93;;;4.60;;
12535;SDS011;6334;48.696;2.114;2023-08-24T08:25:25;7.50;;;4.90;;
12535;SDS011;6334;48.696;2.114;2023-08-24T08:27:55;5.13;;;4.67;;
12535;SDS011;6334;48.696;2.114;2023-08-24T08:30:26;6.20;;;4.77;;
12535;SDS011;6334;48.696;2.114;2023-08-24T08:32:56;6.60;;;4.90;;
12535;SDS011;6334;48.696;2.114;2023-08-24T08:35:27;5.63;;;4.40;;
12535;SDS011;6334;48.696;2.114;2023-08-24T08:37:57;5.23;;;4.50;;
12535;SDS011;6334;48.696;2.114;2023-08-24T08:40:29;8.40;;;4.33;;
12535;SDS011;6334;48.696;2.114;2023-08-24T08:42:58;5.27;;;4.77;;
12535;SDS011;6334;48.696;2.114;2023-08-24T08:45:29;5.50;;;4.47;;
12535;SDS011;6334;48.696;2.114;2023-08-24T08:47:59;6.53;;;4.60;;
12535;SDS011;6334;48.696;2.114;2023-08-24T08:50:30;6.50;;;4.37;;
12535;SDS011;6334;48.696;2.114;2023-08-24T08:53:00;7.00;;;4.40;;
12535;SDS011;6334;48.696;2.114;2023-08-24T08:55:30;5.53;;;4.23;;
12535;SDS011;6334;48.696;2.114;2023-08-24T08:58:01;5.10;;;4.43;;
12535;SDS011;6334;48.696;2.114;2023-08-24T09:00:31;5.97;;;4.30;;
12535;SDS011;6334;48.696;2.114;2023-08-24T09:03:02;4.80;;;4.30;;
12535;SDS011;6334;48.696;2.114;2023-08-24T09:05:32;6.97;;;4.27;;
12535;SDS011;6334;48.696;2.114;2023-08-24T09:08:03;6.53;;;4.90;;
12535;SDS011;6334;48.696;2.114;2023-08-24T09:10:33;4.97;;;4.53;;
12535;SDS011;6334;48.696;2.114;2023-08-24T09:13:04;4.77;;;4.37;;
12535;SDS011;6334;48.696;2.114;2023-08-24T09:15:34;4.87;;;4.37;;
12535;SDS011;6334;48.696;2.114;2023-08-24T09:18:05;7.87;;;4.37;;
12535;SDS011;6334;48.696;2.114;2023-08-24T09:20:35;6.67;;;4.57;;
12535;SDS011;6334;48.696;2.114;2023-08-24T09:26:30;5.53;;;4.10;;
12535;SDS011;6334;48.696;2.114;2023-08-24T09:29:13;5.60;;;4.50;;
12535;SDS011;6334;48.696;2.114;2023-08-24T09:31:42;4.87;;;4.43;;
12535;SDS011;6334;48.696;2.114;2023-08-24T09:34:12;7.10;;;4.67;;
12535;SDS011;6334;48.696;2.114;2023-08-24T09:36:43;6.20;;;4.40;;
12535;SDS011;6334;48.696;2.114;2023-08-24T09:39:16;6.60;;;4.17;;
12535;SDS011;6334;48.696;2.114;2023-08-24T09:41:45;4.33;;;3.93;;
12535;SDS011;6334;48.696;2.114;2023-08-24T09:44:16;6.03;;;4.40;;
12535;SDS011;6334;48.696;2.114;2023-08-24T09:46:45;5.40;;;4.80;;
12535;SDS011;6334;48.696;2.114;2023-08-24T09:49:19;7.93;;;4.97;;
12535;SDS011;6334;48.696;2.114;2023-08-24T09:51:47;6.90;;;4.87;;
12535;SDS011;6334;48.696;2.114;2023-08-24T09:54:18;7.57;;;4.47;;
12535;SDS011;6334;48.696;2.114;2023-08-24T09:56:48;8.70;;;4.90;;
12535;SDS011;6334;48.696;2.114;2023-08-24T09:59:19;7.13;;;4.90;;
12535;SDS011;6334;48.696;2.114;2023-08-24T10:01:49;5.53;;;4.57;;
12535;SDS011;6334;48.696;2.114;2023-08-24T10:04:25;8.30;;;5.20;;
12535;SDS011;6334;48.696;2.114;2023-08-24T10:06:56;5.77;;;4.60;;
12535;SDS011;6334;48.696;2.114;2023-08-24T10:09:27;5.83;;;4.93;;
12535;SDS011;6334;48.696;2.114;2023-08-24T10:11:58;7.23;;;4.80;;
12535;SDS011;6334;48.696;2.114;2023-08-24T10:14:28;8.17;;;5.00;;
12535;SDS011;6334;48.696;2.114;2023-08-24T10:16:57;6.73;;;4.67;;
12535;SDS011;6334;48.696;2.114;2023-08-24T10:19:28;6.70;;;4.93;;
12535;SDS011;6334;48.696;2.114;2023-08-24T10:21:58;7.90;;;4.60;;
12535;SDS011;6334;48.696;2.114;2023-08-24T10:24:29;8.43;;;4.90;;
12535;SDS011;6334;48.696;2.114;2023-08-24T10:26:59;6.50;;;4.80;;
12535;SDS011;6334;48.696;2.114;2023-08-24T10:29:29;7.00;;;4.50;;
12535;SDS011;6334;48.696;2.114;2023-08-24T10:32:00;5.83;;;4.60;;
12535;SDS011;6334;48.696;2.114;2023-08-24T10:34:30;6.13;;;4.57;;
12535;SDS011;6334;48.696;2.114;2023-08-24T10:37:10;5.33;;;4.80;;
12535;SDS011;6334;48.696;2.114;2023-08-24T10:39:43;8.80;;;5.43;;
12535;SDS011;6334;48.696;2.114;2023-08-24T10:42:13;6.53;;;4.27;;
12535;SDS011;6334;48.696;2.114;2023-08-24T10:44:44;5.90;;;4.43;;
12535;SDS011;6334;48.696;2.114;2023-08-24T10:47:18;5.37;;;4.50;;
12535;SDS011;6334;48.696;2.114;2023-08-24T10:52:25;5.23;;;4.57;;
12535;SDS011;6334;48.696;2.114;2023-08-24T10:54:54;6.47;;;4.57;;
12535;SDS011;6334;48.696;2.114;2023-08-24T10:57:40;9.23;;;4.67;;
12535;SDS011;6334;48.696;2.114;2023-08-24T11:00:07;5.77;;;4.80;;
12535;SDS011;6334;48.696;2.114;2023-08-24T11:02:46;5.57;;;4.30;;
12535;SDS011;6334;48.696;2.114;2023-08-24T11:05:25;5.93;;;4.80;;
12535;SDS011;6334;48.696;2.114;2023-08-24T11:07:56;6.37;;;4.40;;
12535;SDS011;6334;48.696;2.114;2023-08-24T11:10:26;5.00;;;4.50;;
12535;SDS011;6334;48.696;2.114;2023-08-24T11:15:39;6.00;;;4.80;;
12535;SDS011;6334;48.696;2.114;2023-08-24T11:20:45;5.20;;;4.70;;
12535;SDS011;6334;48.696;2.114;2023-08-24T11:23:15;7.33;;;5.00;;
12535;SDS011;6334;48.696;2.114;2023-08-24T11:25:46;6.70;;;4.93;;
12535;SDS011;6334;48.696;2.114;2023-08-24T11:28:16;6.27;;;4.90;;
12535;SDS011;6334;48.696;2.114;2023-08-24T11:30:46;9.73;;;5.30;;
12535;SDS011;6334;48.696;2.114;2023-08-24T11:33:18;7.17;;;5.47;;
12535;SDS011;6334;48.696;2.114;2023-08-24T11:35:47;6.40;;;4.63;;
12535;SDS011;6334;48.696;2.114;2023-08-24T11:38:18;8.97;;;5.00;;
12535;SDS011;6334;48.696;2.114;2023-08-24T11:40:48;9.90;;;5.30;;
12535;SDS011;6334;48.696;2.114;2023-08-24T11:43:24;6.00;;;4.90;;
12535;SDS011;6334;48.696;2.114;2023-08-24T11:45:52;5.67;;;4.67;;
12535;SDS011;6334;48.696;2.114;2023-08-24T11:48:25;7.07;;;5.00;;
12535;SDS011;6334;48.696;2.114;2023-08-24T11:50:57;8.37;;;5.57;;
12535;SDS011;6334;48.696;2.114;2023-08-24T11:53:26;7.73;;;5.10;;
12535;SDS011;6334;48.696;2.114;2023-08-24T11:55:57;5.43;;;4.93;;
12535;SDS011;6334;48.696;2.114;2023-08-24T11:58:27;6.53;;;5.07;;
12535;SDS011;6334;48.696;2.114;2023-08-24T12:00:57;7.50;;;5.07;;
12535;SDS011;6334;48.696;2.114;2023-08-24T12:03:28;7.90;;;5.40;;
12535;SDS011;6334;48.696;2.114;2023-08-24T12:05:59;7.83;;;5.20;;
12535;SDS011;6334;48.696;2.114;2023-08-24T12:08:31;11.37;;;5.43;;
12535;SDS011;6334;48.696;2.114;2023-08-24T12:11:02;6.13;;;4.90;;
12535;SDS011;6334;48.696;2.114;2023-08-24T12:13:32;8.53;;;5.50;;
12535;SDS011;6334;48.696;2.114;2023-08-24T12:16:04;7.87;;;4.90;;
12535;SDS011;6334;48.696;2.114;2023-08-24T12:18:35;7.63;;;5.40;;
12535;SDS011;6334;48.696;2.114;2023-08-24T12:21:04;6.87;;;5.50;;
12535;SDS011;6334;48.696;2.114;2023-08-24T12:23:34;9.37;;;5.40;;
12535;SDS011;6334;48.696;2.114;2023-08-24T12:26:04;9.73;;;5.73;;
12535;SDS011;6334;48.696;2.114;2023-08-24T12:28:35;8.13;;;5.73;;
12535;SDS011;6334;48.696;2.114;2023-08-24T12:31:05;8.90;;;5.43;;
12535;SDS011;6334;48.696;2.114;2023-08-24T12:33:36;5.77;;;5.17;;
12535;SDS011;6334;48.696;2.114;2023-08-24T12:36:06;6.77;;;5.23;;
12535;SDS011;6334;48.696;2.114;2023-08-24T12:38:37;7.13;;;5.73;;
12535;SDS011;6334;48.696;2.114;2023-08-24T12:41:07;7.67;;;5.27;;
12535;SDS011;6334;48.696;2.114;2023-08-24T12:43:38;9.10;;;5.30;;
12535;SDS011;6334;48.696;2.114;2023-08-24T12:46:08;5.63;;;5.13;;
12535;SDS011;6334;48.696;2.114;2023-08-24T12:48:39;5.80;;;5.13;;
12535;SDS011;6334;48.696;2.114;2023-08-24T12:51:09;7.63;;;6.10;;
12535;SDS011;6334;48.696;2.114;2023-08-24T12:53:39;11.13;;;6.60;;
12535;SDS011;6334;48.696;2.114;2023-08-24T12:56:10;8.53;;;5.70;;
12535;SDS011;6334;48.696;2.114;2023-08-24T12:58:40;6.90;;;5.70;;
12535;SDS011;6334;48.696;2.114;2023-08-24T13:01:11;8.60;;;5.80;;
12535;SDS011;6334;48.696;2.114;2023-08-24T13:03:41;10.23;;;5.80;;
12535;SDS011;6334;48.696;2.114;2023-08-24T13:06:12;7.50;;;5.67;;
12535;SDS011;6334;48.696;2.114;2023-08-24T13:08:42;8.17;;;5.40;;
12535;SDS011;6334;48.696;2.114;2023-08-24T13:11:13;9.20;;;6.20;;
12535;SDS011;6334;48.696;2.114;2023-08-24T13:13:43;8.40;;;5.87;;
12535;SDS011;6334;48.696;2.114;2023-08-24T13:16:14;8.43;;;5.37;;
12535;SDS011;6334;48.696;2.114;2023-08-24T13:18:44;8.70;;;5.53;;
12535;SDS011;6334;48.696;2.114;2023-08-24T13:21:14;8.17;;;5.63;;
12535;SDS011;6334;48.696;2.114;2023-08-24T13:23:45;6.27;;;5.43;;
12535;SDS011;6334;48.696;2.114;2023-08-24T13:26:18;10.77;;;6.00;;
12535;SDS011;6334;48.696;2.114;2023-08-24T13:28:49;8.13;;;6.13;;
12535;SDS011;6334;48.696;2.114;2023-08-24T13:31:19;8.40;;;5.57;;
12535;SDS011;6334;48.696;2.114;2023-08-24T13:33:50;8.80;;;5.47;;
12535;SDS011;6334;48.696;2.114;2023-08-24T13:36:20;10.10;;;5.93;;
12535;SDS011;6334;48.696;2.114;2023-08-24T13:38:50;7.97;;;6.13;;
12535;SDS011;6334;48.696;2.114;2023-08-24T13:41:21;7.93;;;5.97;;
12535;SDS011;6334;48.696;2.114;2023-08-24T13:43:51;8.20;;;5.27;;
12535;SDS011;6334;48.696;2.114;2023-08-24T13:46:22;8.23;;;5.77;;
12535;SDS011;6334;48.696;2.114;2023-08-24T13:48:52;7.60;;;6.00;;
12535;SDS011;6334;48.696;2.114;2023-08-24T13:51:23;7.20;;;6.07;;
12535;SDS011;6334;48.696;2.114;2023-08-24T13:53:53;9.37;;;6.67;;
12535;SDS011;6334;48.696;2.114;2023-08-24T13:56:24;9.03;;;5.77;;
12535;SDS011;6334;48.696;2.114;2023-08-24T13:58:54;9.03;;;6.23;;
12535;SDS011;6334;48.696;2.114;2023-08-24T14:01:25;7.07;;;5.80;;
12535;SDS011;6334;48.696;2.114;2023-08-24T14:03:56;9.43;;;6.40;;
12535;SDS011;6334;48.696;2.114;2023-08-24T14:06:32;8.70;;;5.70;;
12535;SDS011;6334;48.696;2.114;2023-08-24T14:09:00;7.53;;;5.50;;
12535;SDS011;6334;48.696;2.114;2023-08-24T14:11:30;7.60;;;5.13;;
12535;SDS011;6334;48.696;2.114;2023-08-24T14:14:00;8.20;;;4.40;;
12535;SDS011;6334;48.696;2.114;2023-08-24T14:16:31;8.60;;;5.00;;
12535;SDS011;6334;48.696;2.114;2023-08-24T14:19:01;8.63;;;4.80;;
12535;SDS011;6334;48.696;2.114;2023-08-24T14:21:32;5.77;;;4.40;;
12535;SDS011;6334;48.696;2.114;2023-08-24T14:24:02;5.33;;;4.70;;
12535;SDS011;6334;48.696;2.114;2023-08-24T14:26:34;11.60;;;5.00;;
12535;SDS011;6334;48.696;2.114;2023-08-24T14:29:04;5.77;;;4.47;;
12535;SDS011;6334;48.696;2.114;2023-08-24T14:31:35;7.27;;;4.80;;
12535;SDS011;6334;48.696;2.114;2023-08-24T14:34:05;6.67;;;4.53;;
12535;SDS011;6334;48.696;2.114;2023-08-24T14:36:36;5.37;;;4.63;;
12535;SDS011;6334;48.696;2.114;2023-08-24T14:39:06;7.63;;;4.57;;
12535;SDS011;6334;48.696;2.114;2023-08-24T14:41:37;5.80;;;4.53;;
12535;SDS011;6334;48.696;2.114;2023-08-24T14:44:07;10.73;;;5.17;;
12535;SDS011;6334;48.696;2.114;2023-08-24T14:46:37;6.63;;;4.63;;
12535;SDS011;6334;48.696;2.114;2023-08-24T14:49:09;4.67;;;4.27;;
12535;SDS011;6334;48.696;2.114;2023-08-24T14:51:39;7.93;;;4.73;;
12535;SDS011;6334;48.696;2.114;2023-08-24T14:54:10;5.50;;;4.83;;
12535;SDS011;6334;48.696;2.114;2023-08-24T14:56:40;6.47;;;4.73;;
12535;SDS011;6334;48.696;2.114;2023-08-24T14:59:11;6.50;;;4.60;;
12535;SDS011;6334;48.696;2.114;2023-08-24T15:01:41;6.53;;;4.93;;
12535;SDS011;6334;48.696;2.114;2023-08-24T15:04:12;6.30;;;4.57;;
12535;SDS011;6334;48.696;2.114;2023-08-24T15:06:42;9.43;;;5.03;;
12535;SDS011;6334;48.696;2.114;2023-08-24T15:09:13;5.00;;;4.50;;
12535;SDS011;6334;48.696;2.114;2023-08-24T15:11:43;6.53;;;4.97;;
12535;SDS011;6334;48.696;2.114;2023-08-24T15:14:13;7.67;;;5.10;;
12535;SDS011;6334;48.696;2.114;2023-08-24T15:16:44;6.17;;;4.37;;
12535;SDS011;6334;48.696;2.114;2023-08-24T15:19:14;4.83;;;4.33;;
12535;SDS011;6334;48.696;2.114;2023-08-24T15:21:45;6.30;;;4.60;;
12535;SDS011;6334;48.696;2.114;2023-08-24T15:24:15;5.17;;;4.20;;
12535;SDS011;6334;48.696;2.114;2023-08-24T15:26:46;5.07;;;4.37;;
12535;SDS011;6334;48.696;2.114;2023-08-24T15:29:16;5.73;;;3.80;;
12535;SDS011;6334;48.696;2.114;2023-08-24T15:31:47;4.20;;;3.80;;
12535;SDS011;6334;48.696;2.114;2023-08-24T15:34:17;4.50;;;4.00;;